sensor_id;sensor_type;location;lat;lon;timestamp;temperature;humidity
51029;DHT22;37054;52.054;8.600;2023-12-14T00:00:17;10.30;71.60
51029;DHT22;37054;52.054;8.600;2023-12-14T00:02:43;10.30;71.70
51029;DHT22;37054;52.054;8.600;2023-12-14T00:05:09;10.30;71.60
51029;DHT22;37054;52.054;8.600;2023-12-14T00:07:34;10.30;71.60
51029;DHT22;37054;52.054;8.600;2023-12-14T00:10:00;10.30;71.60
51029;DHT22;37054;52.054;8.600;2023-12-14T00:12:25;10.20;71.30
51029;DHT22;37054;52.054;8.600;2023-12-14T00:14:51;10.20;71.30
51029;DHT22;37054;52.054;8.600;2023-12-14T00:17:16;10.20;71.40
51029;DHT22;37054;52.054;8.600;2023-12-14T00:19:42;10.20;71.40
51029;DHT22;37054;52.054;8.600;2023-12-14T00:22:08;10.20;71.40
51029;DHT22;37054;52.054;8.600;2023-12-14T00:24:33;10.10;71.50
51029;DHT22;37054;52.054;8.600;2023-12-14T00:30:01;10.10;71.70
51029;DHT22;37054;52.054;8.600;2023-12-14T00:32:26;10.10;71.60
51029;DHT22;37054;52.054;8.600;2023-12-14T00:34:51;10.10;71.50
51029;DHT22;37054;52.054;8.600;2023-12-14T00:37:17;10.10;71.50
51029;DHT22;37054;52.054;8.600;2023-12-14T00:39:42;10.10;71.40
51029;DHT22;37054;52.054;8.600;2023-12-14T00:42:08;10.00;71.40
51029;DHT22;37054;52.054;8.600;2023-12-14T00:44:33;10.00;71.40
51029;DHT22;37054;52.054;8.600;2023-12-14T00:46:59;10.00;71.40
51029;DHT22;37054;52.054;8.600;2023-12-14T00:49:25;10.00;71.50
51029;DHT22;37054;52.054;8.600;2023-12-14T00:51:53;10.00;71.60
51029;DHT22;37054;52.054;8.600;2023-12-14T00:54:18;10.00;71.60
51029;DHT22;37054;52.054;8.600;2023-12-14T00:56:44;10.10;71.60
51029;DHT22;37054;52.054;8.600;2023-12-14T00:59:09;10.00;71.50
51029;DHT22;37054;52.054;8.600;2023-12-14T01:01:35;10.00;71.40
51029;DHT22;37054;52.054;8.600;2023-12-14T01:04:00;9.90;71.40
51029;DHT22;37054;52.054;8.600;2023-12-14T01:06:26;10.00;71.40
51029;DHT22;37054;52.054;8.600;2023-12-14T01:08:51;9.90;71.40
51029;DHT22;37054;52.054;8.600;2023-12-14T01:11:17;9.80;71.30
51029;DHT22;37054;52.054;8.600;2023-12-14T01:13:42;9.80;71.20
51029;DHT22;37054;52.054;8.600;2023-12-14T01:16:08;9.80;71.40
51029;DHT22;37054;52.054;8.600;2023-12-14T01:18:33;9.80;71.50
51029;DHT22;37054;52.054;8.600;2023-12-14T01:20:59;9.80;71.50
51029;DHT22;37054;52.054;8.600;2023-12-14T01:23:24;9.80;71.40
51029;DHT22;37054;52.054;8.600;2023-12-14T01:25:50;9.70;71.30
51029;DHT22;37054;52.054;8.600;2023-12-14T01:28:15;9.70;71.20
51029;DHT22;37054;52.054;8.600;2023-12-14T01:30:41;9.70;71.30
51029;DHT22;37054;52.054;8.600;2023-12-14T01:33:06;9.70;71.20
51029;DHT22;37054;52.054;8.600;2023-12-14T01:35:32;9.70;71.20
51029;DHT22;37054;52.054;8.600;2023-12-14T01:37:57;9.60;71.40
51029;DHT22;37054;52.054;8.600;2023-12-14T01:40:23;9.70;71.30
51029;DHT22;37054;52.054;8.600;2023-12-14T01:42:48;9.60;71.40
51029;DHT22;37054;52.054;8.600;2023-12-14T01:45:14;9.60;71.60
51029;DHT22;37054;52.054;8.600;2023-12-14T01:47:42;9.70;71.70
51029;DHT22;37054;52.054;8.600;2023-12-14T01:50:08;9.70;71.60
51029;DHT22;37054;52.054;8.600;2023-12-14T01:52:33;9.70;71.60
51029;DHT22;37054;52.054;8.600;2023-12-14T01:54:59;9.70;71.30
51029;DHT22;37054;52.054;8.600;2023-12-14T01:57:24;9.70;71.30
51029;DHT22;37054;52.054;8.600;2023-12-14T01:59:50;9.70;71.20
51029;DHT22;37054;52.054;8.600;2023-12-14T02:02:15;9.70;71.20
51029;DHT22;37054;52.054;8.600;2023-12-14T02:04:41;9.70;71.20
51029;DHT22;37054;52.054;8.600;2023-12-14T02:07:07;9.60;71.10
51029;DHT22;37054;52.054;8.600;2023-12-14T02:09:32;9.60;71.20
51029;DHT22;37054;52.054;8.600;2023-12-14T02:11:58;9.50;71.20
51029;DHT22;37054;52.054;8.600;2023-12-14T02:14:23;9.50;71.10
51029;DHT22;37054;52.054;8.600;2023-12-14T02:16:49;9.50;71.10
51029;DHT22;37054;52.054;8.600;2023-12-14T02:19:14;9.40;71.10
51029;DHT22;37054;52.054;8.600;2023-12-14T02:21:40;9.40;71.20
51029;DHT22;37054;52.054;8.600;2023-12-14T02:24:05;9.40;71.50
51029;DHT22;37054;52.054;8.600;2023-12-14T02:26:31;9.40;71.40
51029;DHT22;37054;52.054;8.600;2023-12-14T02:28:56;9.40;71.30
51029;DHT22;37054;52.054;8.600;2023-12-14T02:31:23;9.40;71.20
51029;DHT22;37054;52.054;8.600;2023-12-14T02:33:49;9.40;71.20
51029;DHT22;37054;52.054;8.600;2023-12-14T02:36:14;9.40;71.20
51029;DHT22;37054;52.054;8.600;2023-12-14T02:38:40;9.30;71.20
51029;DHT22;37054;52.054;8.600;2023-12-14T02:41:05;9.40;71.10
51029;DHT22;37054;52.054;8.600;2023-12-14T02:43:31;9.30;71.00
51029;DHT22;37054;52.054;8.600;2023-12-14T02:45:56;9.30;71.10
51029;DHT22;37054;52.054;8.600;2023-12-14T02:48:27;9.30;71.00
51029;DHT22;37054;52.054;8.600;2023-12-14T02:50:54;9.30;71.00
51029;DHT22;37054;52.054;8.600;2023-12-14T02:53:19;9.30;71.20
51029;DHT22;37054;52.054;8.600;2023-12-14T02:55:45;9.30;71.20
51029;DHT22;37054;52.054;8.600;2023-12-14T02:58:10;9.30;71.00
51029;DHT22;37054;52.054;8.600;2023-12-14T03:00:36;9.30;71.20
51029;DHT22;37054;52.054;8.600;2023-12-14T03:03:01;9.30;71.00
51029;DHT22;37054;52.054;8.600;2023-12-14T03:05:27;9.20;71.10
51029;DHT22;37054;52.054;8.600;2023-12-14T03:07:52;9.20;71.00
51029;DHT22;37054;52.054;8.600;2023-12-14T03:10:18;9.10;71.20
51029;DHT22;37054;52.054;8.600;2023-12-14T03:12:44;9.20;71.30
51029;DHT22;37054;52.054;8.600;2023-12-14T03:15:09;9.20;71.20
51029;DHT22;37054;52.054;8.600;2023-12-14T03:17:35;9.20;71.30
51029;DHT22;37054;52.054;8.600;2023-12-14T03:20:01;9.20;71.40
51029;DHT22;37054;52.054;8.600;2023-12-14T03:22:26;9.20;71.40
51029;DHT22;37054;52.054;8.600;2023-12-14T03:24:52;9.20;71.50
51029;DHT22;37054;52.054;8.600;2023-12-14T03:27:17;9.20;71.50
51029;DHT22;37054;52.054;8.600;2023-12-14T03:29:43;9.30;71.50
51029;DHT22;37054;52.054;8.600;2023-12-14T03:32:08;9.30;71.50
51029;DHT22;37054;52.054;8.600;2023-12-14T03:34:34;9.30;71.50
51029;DHT22;37054;52.054;8.600;2023-12-14T03:36:59;9.30;71.50
51029;DHT22;37054;52.054;8.600;2023-12-14T03:39:27;9.30;71.40
51029;DHT22;37054;52.054;8.600;2023-12-14T03:41:52;9.30;71.40
51029;DHT22;37054;52.054;8.600;2023-12-14T03:44:21;9.20;71.30
51029;DHT22;37054;52.054;8.600;2023-12-14T03:46:46;9.20;71.10
51029;DHT22;37054;52.054;8.600;2023-12-14T03:49:12;9.20;71.00
51029;DHT22;37054;52.054;8.600;2023-12-14T03:51:37;9.10;71.00
51029;DHT22;37054;52.054;8.600;2023-12-14T03:54:03;9.10;71.00
51029;DHT22;37054;52.054;8.600;2023-12-14T03:56:28;9.10;71.10
51029;DHT22;37054;52.054;8.600;2023-12-14T03:58:57;9.10;71.10
51029;DHT22;37054;52.054;8.600;2023-12-14T04:01:23;9.10;71.00
51029;DHT22;37054;52.054;8.600;2023-12-14T04:03:48;9.00;71.00
51029;DHT22;37054;52.054;8.600;2023-12-14T04:06:14;9.00;71.10
51029;DHT22;37054;52.054;8.600;2023-12-14T04:08:41;9.00;70.90
51029;DHT22;37054;52.054;8.600;2023-12-14T04:11:07;9.00;71.00
51029;DHT22;37054;52.054;8.600;2023-12-14T04:13:33;9.00;71.00
51029;DHT22;37054;52.054;8.600;2023-12-14T04:15:59;9.00;71.10
51029;DHT22;37054;52.054;8.600;2023-12-14T04:18:24;9.00;71.10
51029;DHT22;37054;52.054;8.600;2023-12-14T04:20:50;9.10;71.10
51029;DHT22;37054;52.054;8.600;2023-12-14T04:23:15;9.10;71.10
51029;DHT22;37054;52.054;8.600;2023-12-14T04:25:41;9.10;71.10
51029;DHT22;37054;52.054;8.600;2023-12-14T04:28:06;9.00;71.20
51029;DHT22;37054;52.054;8.600;2023-12-14T04:30:32;9.00;71.20
51029;DHT22;37054;52.054;8.600;2023-12-14T04:32:58;9.00;71.20
51029;DHT22;37054;52.054;8.600;2023-12-14T04:35:23;9.10;71.20
51029;DHT22;37054;52.054;8.600;2023-12-14T04:37:49;9.10;71.20
51029;DHT22;37054;52.054;8.600;2023-12-14T04:40:14;9.10;71.20
51029;DHT22;37054;52.054;8.600;2023-12-14T04:42:40;9.10;71.20
51029;DHT22;37054;52.054;8.600;2023-12-14T04:45:06;9.10;71.20
51029;DHT22;37054;52.054;8.600;2023-12-14T04:47:32;9.10;71.30
51029;DHT22;37054;52.054;8.600;2023-12-14T04:49:57;9.10;71.40
51029;DHT22;37054;52.054;8.600;2023-12-14T04:52:23;9.10;71.40
51029;DHT22;37054;52.054;8.600;2023-12-14T04:54:48;9.10;71.30
51029;DHT22;37054;52.054;8.600;2023-12-14T04:57:14;9.10;71.20
51029;DHT22;37054;52.054;8.600;2023-12-14T04:59:41;9.20;71.20
51029;DHT22;37054;52.054;8.600;2023-12-14T05:02:07;9.10;71.00
51029;DHT22;37054;52.054;8.600;2023-12-14T05:04:32;9.10;71.10
51029;DHT22;37054;52.054;8.600;2023-12-14T05:06:58;9.10;71.10
51029;DHT22;37054;52.054;8.600;2023-12-14T05:09:23;9.10;71.10
51029;DHT22;37054;52.054;8.600;2023-12-14T05:11:49;9.10;71.10
51029;DHT22;37054;52.054;8.600;2023-12-14T05:14:14;9.10;71.20
51029;DHT22;37054;52.054;8.600;2023-12-14T05:16:40;9.10;71.10
51029;DHT22;37054;52.054;8.600;2023-12-14T05:19:05;9.00;71.10
51029;DHT22;37054;52.054;8.600;2023-12-14T05:21:32;9.00;71.10
51029;DHT22;37054;52.054;8.600;2023-12-14T05:23:57;9.00;71.00
51029;DHT22;37054;52.054;8.600;2023-12-14T05:26:23;9.00;71.10
51029;DHT22;37054;52.054;8.600;2023-12-14T05:28:48;9.00;71.00
51029;DHT22;37054;52.054;8.600;2023-12-14T05:31:14;9.00;70.90
51029;DHT22;37054;52.054;8.600;2023-12-14T05:33:39;9.00;71.10
51029;DHT22;37054;52.054;8.600;2023-12-14T05:36:06;9.00;71.10
51029;DHT22;37054;52.054;8.600;2023-12-14T05:38:35;9.00;70.90
51029;DHT22;37054;52.054;8.600;2023-12-14T05:41:01;8.90;70.70
51029;DHT22;37054;52.054;8.600;2023-12-14T05:43:26;8.90;70.80
51029;DHT22;37054;52.054;8.600;2023-12-14T05:45:52;8.80;70.70
51029;DHT22;37054;52.054;8.600;2023-12-14T05:48:17;8.80;70.80
51029;DHT22;37054;52.054;8.600;2023-12-14T05:50:42;8.80;71.00
51029;DHT22;37054;52.054;8.600;2023-12-14T05:53:08;8.80;71.00
51029;DHT22;37054;52.054;8.600;2023-12-14T05:55:33;8.80;70.70
51029;DHT22;37054;52.054;8.600;2023-12-14T05:57:59;8.80;70.90
51029;DHT22;37054;52.054;8.600;2023-12-14T06:00:24;8.80;70.90
51029;DHT22;37054;52.054;8.600;2023-12-14T06:02:50;8.80;70.90
51029;DHT22;37054;52.054;8.600;2023-12-14T06:05:15;8.80;71.00
51029;DHT22;37054;52.054;8.600;2023-12-14T06:07:41;8.80;71.10
51029;DHT22;37054;52.054;8.600;2023-12-14T06:10:07;8.80;71.00
51029;DHT22;37054;52.054;8.600;2023-12-14T06:12:32;8.80;71.00
51029;DHT22;37054;52.054;8.600;2023-12-14T06:14:58;8.80;71.00
51029;DHT22;37054;52.054;8.600;2023-12-14T06:17:23;8.80;71.10
51029;DHT22;37054;52.054;8.600;2023-12-14T06:19:49;8.80;71.20
51029;DHT22;37054;52.054;8.600;2023-12-14T06:22:14;8.90;71.20
51029;DHT22;37054;52.054;8.600;2023-12-14T06:24:40;8.90;71.20
51029;DHT22;37054;52.054;8.600;2023-12-14T06:27:05;8.90;71.10
51029;DHT22;37054;52.054;8.600;2023-12-14T06:29:31;8.90;71.10
51029;DHT22;37054;52.054;8.600;2023-12-14T06:31:56;8.90;71.20
51029;DHT22;37054;52.054;8.600;2023-12-14T06:34:22;9.00;71.00
51029;DHT22;37054;52.054;8.600;2023-12-14T06:36:47;8.90;70.90
51029;DHT22;37054;52.054;8.600;2023-12-14T06:39:13;8.90;70.80
51029;DHT22;37054;52.054;8.600;2023-12-14T06:41:38;8.90;70.80
51029;DHT22;37054;52.054;8.600;2023-12-14T06:44:04;8.80;70.90
51029;DHT22;37054;52.054;8.600;2023-12-14T06:46:30;8.80;70.90
51029;DHT22;37054;52.054;8.600;2023-12-14T06:48:56;8.80;71.00
51029;DHT22;37054;52.054;8.600;2023-12-14T06:51:22;8.80;71.00
51029;DHT22;37054;52.054;8.600;2023-12-14T06:53:48;8.80;71.00
51029;DHT22;37054;52.054;8.600;2023-12-14T06:56:13;8.80;70.90
51029;DHT22;37054;52.054;8.600;2023-12-14T06:58:44;8.80;71.00
51029;DHT22;37054;52.054;8.600;2023-12-14T07:01:13;8.80;71.00
51029;DHT22;37054;52.054;8.600;2023-12-14T07:03:40;8.90;71.10
51029;DHT22;37054;52.054;8.600;2023-12-14T07:06:07;8.90;71.10
51029;DHT22;37054;52.054;8.600;2023-12-14T07:08:33;8.90;71.10
51029;DHT22;37054;52.054;8.600;2023-12-14T07:10:58;8.80;71.00
51029;DHT22;37054;52.054;8.600;2023-12-14T07:13:24;8.80;70.90
51029;DHT22;37054;52.054;8.600;2023-12-14T07:15:49;8.80;70.80
51029;DHT22;37054;52.054;8.600;2023-12-14T07:18:15;8.90;71.00
51029;DHT22;37054;52.054;8.600;2023-12-14T07:20:40;8.80;71.10
51029;DHT22;37054;52.054;8.600;2023-12-14T07:23:06;8.90;71.00
51029;DHT22;37054;52.054;8.600;2023-12-14T07:25:31;8.90;70.80
51029;DHT22;37054;52.054;8.600;2023-12-14T07:27:57;8.80;70.90
51029;DHT22;37054;52.054;8.600;2023-12-14T07:30:22;8.80;70.90
51029;DHT22;37054;52.054;8.600;2023-12-14T07:32:48;8.80;71.00
51029;DHT22;37054;52.054;8.600;2023-12-14T07:35:13;8.80;70.90
51029;DHT22;37054;52.054;8.600;2023-12-14T07:37:39;8.80;71.00
51029;DHT22;37054;52.054;8.600;2023-12-14T07:40:05;8.90;70.80
51029;DHT22;37054;52.054;8.600;2023-12-14T07:42:30;8.80;70.70
51029;DHT22;37054;52.054;8.600;2023-12-14T07:44:56;8.80;70.70
51029;DHT22;37054;52.054;8.600;2023-12-14T07:47:22;8.80;70.80
51029;DHT22;37054;52.054;8.600;2023-12-14T07:49:47;8.80;70.80
51029;DHT22;37054;52.054;8.600;2023-12-14T07:52:13;8.80;70.70
51029;DHT22;37054;52.054;8.600;2023-12-14T07:54:39;8.80;70.60
51029;DHT22;37054;52.054;8.600;2023-12-14T07:57:05;8.80;70.80
51029;DHT22;37054;52.054;8.600;2023-12-14T07:59:30;8.80;70.80
51029;DHT22;37054;52.054;8.600;2023-12-14T08:01:56;8.80;70.50
51029;DHT22;37054;52.054;8.600;2023-12-14T08:04:21;8.70;70.30
51029;DHT22;37054;52.054;8.600;2023-12-14T08:06:47;8.70;70.60
51029;DHT22;37054;52.054;8.600;2023-12-14T08:09:12;8.70;70.40
51029;DHT22;37054;52.054;8.600;2023-12-14T08:11:38;8.70;70.50
51029;DHT22;37054;52.054;8.600;2023-12-14T08:14:03;8.70;70.60
51029;DHT22;37054;52.054;8.600;2023-12-14T08:16:29;8.60;70.40
51029;DHT22;37054;52.054;8.600;2023-12-14T08:18:55;8.60;70.60
51029;DHT22;37054;52.054;8.600;2023-12-14T08:21:20;8.60;70.70
51029;DHT22;37054;52.054;8.600;2023-12-14T08:23:46;8.60;70.80
51029;DHT22;37054;52.054;8.600;2023-12-14T08:26:11;8.60;70.60
51029;DHT22;37054;52.054;8.600;2023-12-14T08:28:38;8.60;70.50
51029;DHT22;37054;52.054;8.600;2023-12-14T08:31:04;8.60;70.70
51029;DHT22;37054;52.054;8.600;2023-12-14T08:33:30;8.60;70.80
51029;DHT22;37054;52.054;8.600;2023-12-14T08:35:56;8.60;70.60
51029;DHT22;37054;52.054;8.600;2023-12-14T08:38:22;8.60;70.60
51029;DHT22;37054;52.054;8.600;2023-12-14T08:40:47;8.50;70.50
51029;DHT22;37054;52.054;8.600;2023-12-14T08:43:13;8.50;70.70
51029;DHT22;37054;52.054;8.600;2023-12-14T08:45:39;8.60;70.80
51029;DHT22;37054;52.054;8.600;2023-12-14T08:48:04;8.60;70.90
51029;DHT22;37054;52.054;8.600;2023-12-14T08:50:30;8.60;70.60
51029;DHT22;37054;52.054;8.600;2023-12-14T08:52:56;8.60;70.80
51029;DHT22;37054;52.054;8.600;2023-12-14T08:55:24;8.60;70.70
51029;DHT22;37054;52.054;8.600;2023-12-14T08:57:50;8.60;70.70
51029;DHT22;37054;52.054;8.600;2023-12-14T09:00:16;8.60;71.00
51029;DHT22;37054;52.054;8.600;2023-12-14T09:02:43;8.60;70.90
51029;DHT22;37054;52.054;8.600;2023-12-14T09:05:09;8.60;70.90
51029;DHT22;37054;52.054;8.600;2023-12-14T09:07:34;8.70;71.00
51029;DHT22;37054;52.054;8.600;2023-12-14T09:10:00;8.70;71.20
51029;DHT22;37054;52.054;8.600;2023-12-14T09:12:25;8.70;71.20
51029;DHT22;37054;52.054;8.600;2023-12-14T09:14:51;8.70;71.30
51029;DHT22;37054;52.054;8.600;2023-12-14T09:17:16;8.80;71.30
51029;DHT22;37054;52.054;8.600;2023-12-14T09:19:42;8.80;71.20
51029;DHT22;37054;52.054;8.600;2023-12-14T09:22:07;8.80;71.20
51029;DHT22;37054;52.054;8.600;2023-12-14T09:24:33;8.80;71.30
51029;DHT22;37054;52.054;8.600;2023-12-14T09:26:58;8.90;71.20
51029;DHT22;37054;52.054;8.600;2023-12-14T09:29:24;8.90;71.10
51029;DHT22;37054;52.054;8.600;2023-12-14T09:31:49;8.90;71.10
51029;DHT22;37054;52.054;8.600;2023-12-14T09:34:15;9.00;71.40
51029;DHT22;37054;52.054;8.600;2023-12-14T09:36:41;9.00;71.30
51029;DHT22;37054;52.054;8.600;2023-12-14T09:39:06;9.00;71.20
51029;DHT22;37054;52.054;8.600;2023-12-14T09:41:38;9.10;71.30
51029;DHT22;37054;52.054;8.600;2023-12-14T09:44:05;9.10;71.50
51029;DHT22;37054;52.054;8.600;2023-12-14T09:46:35;9.20;71.40
51029;DHT22;37054;52.054;8.600;2023-12-14T09:49:02;9.20;71.40
51029;DHT22;37054;52.054;8.600;2023-12-14T09:51:29;9.20;71.20
51029;DHT22;37054;52.054;8.600;2023-12-14T09:53:55;9.20;71.10
51029;DHT22;37054;52.054;8.600;2023-12-14T09:56:24;9.20;71.20
51029;DHT22;37054;52.054;8.600;2023-12-14T09:58:50;9.20;71.20
51029;DHT22;37054;52.054;8.600;2023-12-14T10:01:23;9.20;71.30
51029;DHT22;37054;52.054;8.600;2023-12-14T10:03:49;9.30;71.40
51029;DHT22;37054;52.054;8.600;2023-12-14T10:06:15;9.30;71.30
51029;DHT22;37054;52.054;8.600;2023-12-14T10:08:40;9.30;71.00
51029;DHT22;37054;52.054;8.600;2023-12-14T10:11:15;9.30;70.90
51029;DHT22;37054;52.054;8.600;2023-12-14T10:13:40;9.30;70.70
51029;DHT22;37054;52.054;8.600;2023-12-14T10:16:07;9.30;70.80
51029;DHT22;37054;52.054;8.600;2023-12-14T10:18:33;9.20;70.90
51029;DHT22;37054;52.054;8.600;2023-12-14T10:21:01;9.30;70.80
51029;DHT22;37054;52.054;8.600;2023-12-14T10:23:27;9.30;70.80
51029;DHT22;37054;52.054;8.600;2023-12-14T10:25:53;9.30;70.80
51029;DHT22;37054;52.054;8.600;2023-12-14T10:28:18;9.30;70.90
51029;DHT22;37054;52.054;8.600;2023-12-14T10:30:44;9.30;71.00
51029;DHT22;37054;52.054;8.600;2023-12-14T10:33:09;9.30;71.10
51029;DHT22;37054;52.054;8.600;2023-12-14T10:35:35;9.30;71.20
51029;DHT22;37054;52.054;8.600;2023-12-14T10:38:05;9.40;71.20
51029;DHT22;37054;52.054;8.600;2023-12-14T10:40:34;9.40;71.40
51029;DHT22;37054;52.054;8.600;2023-12-14T10:43:01;9.50;71.30
51029;DHT22;37054;52.054;8.600;2023-12-14T10:45:31;9.50;71.30
51029;DHT22;37054;52.054;8.600;2023-12-14T10:47:59;9.50;71.30
51029;DHT22;37054;52.054;8.600;2023-12-14T10:50:29;9.60;71.40
51029;DHT22;37054;52.054;8.600;2023-12-14T10:52:58;9.60;71.70
51029;DHT22;37054;52.054;8.600;2023-12-14T10:55:31;9.70;71.90
51029;DHT22;37054;52.054;8.600;2023-12-14T10:57:58;9.80;71.90
51029;DHT22;37054;52.054;8.600;2023-12-14T11:00:24;9.80;71.60
51029;DHT22;37054;52.054;8.600;2023-12-14T11:02:49;9.80;71.50
51029;DHT22;37054;52.054;8.600;2023-12-14T11:05:18;9.80;71.60
51029;DHT22;37054;52.054;8.600;2023-12-14T11:07:50;9.90;71.40
51029;DHT22;37054;52.054;8.600;2023-12-14T11:10:26;9.80;71.30
51029;DHT22;37054;52.054;8.600;2023-12-14T11:13:11;9.80;71.40
51029;DHT22;37054;52.054;8.600;2023-12-14T11:15:39;9.90;71.30
51029;DHT22;37054;52.054;8.600;2023-12-14T11:25:39;9.80;71.20
51029;DHT22;37054;52.054;8.600;2023-12-14T11:28:06;9.80;71.40
51029;DHT22;37054;52.054;8.600;2023-12-14T11:30:33;9.90;71.60
51029;DHT22;37054;52.054;8.600;2023-12-14T11:32:59;9.90;71.50
51029;DHT22;37054;52.054;8.600;2023-12-14T11:35:24;10.00;71.60
51029;DHT22;37054;52.054;8.600;2023-12-14T11:37:50;10.00;71.80
51029;DHT22;37054;52.054;8.600;2023-12-14T11:40:15;10.10;71.70
51029;DHT22;37054;52.054;8.600;2023-12-14T11:43:00;10.20;71.70
51029;DHT22;37054;52.054;8.600;2023-12-14T11:45:26;10.20;71.80
51029;DHT22;37054;52.054;8.600;2023-12-14T11:47:52;10.30;71.80
51029;DHT22;37054;52.054;8.600;2023-12-14T11:50:18;10.30;71.60
51029;DHT22;37054;52.054;8.600;2023-12-14T11:52:44;10.30;71.50
51029;DHT22;37054;52.054;8.600;2023-12-14T11:55:11;10.40;71.70
51029;DHT22;37054;52.054;8.600;2023-12-14T11:57:36;10.50;72.00
51029;DHT22;37054;52.054;8.600;2023-12-14T12:00:02;10.60;72.00
51029;DHT22;37054;52.054;8.600;2023-12-14T12:02:28;10.70;72.10
51029;DHT22;37054;52.054;8.600;2023-12-14T12:04:54;10.80;72.00
51029;DHT22;37054;52.054;8.600;2023-12-14T12:07:19;10.90;72.20
51029;DHT22;37054;52.054;8.600;2023-12-14T12:09:46;11.00;72.10
51029;DHT22;37054;52.054;8.600;2023-12-14T12:12:12;11.10;72.20
51029;DHT22;37054;52.054;8.600;2023-12-14T12:14:39;11.30;72.40
51029;DHT22;37054;52.054;8.600;2023-12-14T12:17:06;11.40;72.30
51029;DHT22;37054;52.054;8.600;2023-12-14T12:19:36;11.60;72.50
51029;DHT22;37054;52.054;8.600;2023-12-14T12:22:02;11.70;72.10
51029;DHT22;37054;52.054;8.600;2023-12-14T12:24:28;11.80;71.90
51029;DHT22;37054;52.054;8.600;2023-12-14T12:26:54;11.80;72.00
51029;DHT22;37054;52.054;8.600;2023-12-14T12:29:20;11.90;71.70
51029;DHT22;37054;52.054;8.600;2023-12-14T12:31:46;11.90;71.90
51029;DHT22;37054;52.054;8.600;2023-12-14T12:34:12;11.90;71.80
51029;DHT22;37054;52.054;8.600;2023-12-14T12:36:37;12.00;71.80
51029;DHT22;37054;52.054;8.600;2023-12-14T12:39:03;11.90;71.50
51029;DHT22;37054;52.054;8.600;2023-12-14T12:41:31;11.90;71.20
51029;DHT22;37054;52.054;8.600;2023-12-14T12:43:57;11.80;71.50
51029;DHT22;37054;52.054;8.600;2023-12-14T12:46:23;11.80;71.80
51029;DHT22;37054;52.054;8.600;2023-12-14T12:48:48;11.90;71.90
51029;DHT22;37054;52.054;8.600;2023-12-14T12:51:14;11.90;72.10
51029;DHT22;37054;52.054;8.600;2023-12-14T12:53:40;11.90;71.90
51029;DHT22;37054;52.054;8.600;2023-12-14T12:56:06;11.90;72.00
51029;DHT22;37054;52.054;8.600;2023-12-14T12:58:31;11.90;71.60
51029;DHT22;37054;52.054;8.600;2023-12-14T13:00:57;11.80;71.80
51029;DHT22;37054;52.054;8.600;2023-12-14T13:03:23;11.90;72.20
51029;DHT22;37054;52.054;8.600;2023-12-14T13:05:48;12.00;72.10
51029;DHT22;37054;52.054;8.600;2023-12-14T13:08:14;12.00;71.90
51029;DHT22;37054;52.054;8.600;2023-12-14T13:10:39;12.00;71.80
51029;DHT22;37054;52.054;8.600;2023-12-14T13:13:05;12.10;72.10
51029;DHT22;37054;52.054;8.600;2023-12-14T13:15:32;12.20;72.10
51029;DHT22;37054;52.054;8.600;2023-12-14T13:17:57;12.20;71.80
51029;DHT22;37054;52.054;8.600;2023-12-14T13:20:24;12.20;71.60
51029;DHT22;37054;52.054;8.600;2023-12-14T13:22:49;12.30;71.80
51029;DHT22;37054;52.054;8.600;2023-12-14T13:25:15;12.30;71.80
51029;DHT22;37054;52.054;8.600;2023-12-14T13:27:41;12.30;71.40
51029;DHT22;37054;52.054;8.600;2023-12-14T13:30:07;12.20;70.90
51029;DHT22;37054;52.054;8.600;2023-12-14T13:32:33;12.10;70.70
51029;DHT22;37054;52.054;8.600;2023-12-14T13:34:59;12.00;70.50
51029;DHT22;37054;52.054;8.600;2023-12-14T13:37:25;11.90;70.40
51029;DHT22;37054;52.054;8.600;2023-12-14T13:39:50;11.90;71.00
51029;DHT22;37054;52.054;8.600;2023-12-14T13:42:18;11.80;71.20
51029;DHT22;37054;52.054;8.600;2023-12-14T13:44:44;11.80;71.00
51029;DHT22;37054;52.054;8.600;2023-12-14T13:47:10;11.70;70.30
51029;DHT22;37054;52.054;8.600;2023-12-14T13:49:36;11.60;70.10
51029;DHT22;37054;52.054;8.600;2023-12-14T13:52:01;11.50;70.30
51029;DHT22;37054;52.054;8.600;2023-12-14T13:54:28;11.40;70.40
51029;DHT22;37054;52.054;8.600;2023-12-14T13:56:53;11.40;70.70
51029;DHT22;37054;52.054;8.600;2023-12-14T13:59:19;11.40;70.90
51029;DHT22;37054;52.054;8.600;2023-12-14T14:01:44;11.40;71.10
51029;DHT22;37054;52.054;8.600;2023-12-14T14:04:10;11.50;71.20
51029;DHT22;37054;52.054;8.600;2023-12-14T14:06:36;11.50;71.30
51029;DHT22;37054;52.054;8.600;2023-12-14T14:09:01;11.50;71.20
51029;DHT22;37054;52.054;8.600;2023-12-14T14:11:27;11.50;71.20
51029;DHT22;37054;52.054;8.600;2023-12-14T14:13:52;11.50;71.00
51029;DHT22;37054;52.054;8.600;2023-12-14T14:16:18;11.50;70.50
51029;DHT22;37054;52.054;8.600;2023-12-14T14:18:44;11.40;70.60
51029;DHT22;37054;52.054;8.600;2023-12-14T14:21:09;11.30;70.30
51029;DHT22;37054;52.054;8.600;2023-12-14T14:23:35;11.30;70.30
51029;DHT22;37054;52.054;8.600;2023-12-14T14:26:00;11.20;70.50
51029;DHT22;37054;52.054;8.600;2023-12-14T14:28:26;11.20;70.50
51029;DHT22;37054;52.054;8.600;2023-12-14T14:30:52;11.20;70.40
51029;DHT22;37054;52.054;8.600;2023-12-14T14:33:17;11.10;70.60
51029;DHT22;37054;52.054;8.600;2023-12-14T14:35:46;11.20;70.70
51029;DHT22;37054;52.054;8.600;2023-12-14T14:38:13;11.10;70.60
51029;DHT22;37054;52.054;8.600;2023-12-14T14:40:38;11.10;70.70
51029;DHT22;37054;52.054;8.600;2023-12-14T14:43:04;11.10;70.60
51029;DHT22;37054;52.054;8.600;2023-12-14T14:45:30;11.10;70.60
51029;DHT22;37054;52.054;8.600;2023-12-14T14:47:55;11.00;70.60
51029;DHT22;37054;52.054;8.600;2023-12-14T14:50:21;11.00;70.40
51029;DHT22;37054;52.054;8.600;2023-12-14T14:52:47;11.00;69.90
51029;DHT22;37054;52.054;8.600;2023-12-14T14:55:13;10.90;70.00
51029;DHT22;37054;52.054;8.600;2023-12-14T14:57:39;10.80;70.00
51029;DHT22;37054;52.054;8.600;2023-12-14T15:00:05;10.70;69.80
51029;DHT22;37054;52.054;8.600;2023-12-14T15:02:31;10.70;69.60
51029;DHT22;37054;52.054;8.600;2023-12-14T15:04:57;10.60;69.10
51029;DHT22;37054;52.054;8.600;2023-12-14T15:07:22;10.40;68.80
51029;DHT22;37054;52.054;8.600;2023-12-14T15:09:48;10.40;68.70
51029;DHT22;37054;52.054;8.600;2023-12-14T15:12:13;10.20;68.60
51029;DHT22;37054;52.054;8.600;2023-12-14T15:14:39;10.20;68.70
51029;DHT22;37054;52.054;8.600;2023-12-14T15:17:04;10.10;68.90
51029;DHT22;37054;52.054;8.600;2023-12-14T15:19:30;10.00;69.30
51029;DHT22;37054;52.054;8.600;2023-12-14T15:21:55;10.00;69.50
51029;DHT22;37054;52.054;8.600;2023-12-14T15:24:21;10.00;69.60
51029;DHT22;37054;52.054;8.600;2023-12-14T15:26:47;10.00;69.70
51029;DHT22;37054;52.054;8.600;2023-12-14T15:29:14;10.00;69.80
51029;DHT22;37054;52.054;8.600;2023-12-14T15:31:39;10.00;70.00
51029;DHT22;37054;52.054;8.600;2023-12-14T15:34:05;10.00;70.20
51029;DHT22;37054;52.054;8.600;2023-12-14T15:36:32;10.00;70.20
51029;DHT22;37054;52.054;8.600;2023-12-14T15:39:00;10.00;70.40
51029;DHT22;37054;52.054;8.600;2023-12-14T15:41:25;10.00;70.40